Time;durP1;ratioP1;P1;durP2;ratioP2;P2;SDS_P1;SDS_P2;PMS_P1;PMS_P2;Temp;Humidity;BMP_temperature;BMP_pressure;BME280_temperature;BME280_humidity;BME280_pressure;Samples;Min_cycle;Max_cycle;Signal;HPM_P1;HPM_P2
2023/02/28 00:01:09;;;;;;;5.50;4.00;;;;;;;;;;5032661;28;20507;-64
2023/02/28 00:03:37;;;;;;;4.00;3.70;;;;;;;;;;5034650;28;20541;-64
2023/02/28 00:06:05;;;;;;;5.03;4.10;;;;;;;;;;5033497;28;20461;-64
2023/02/28 00:08:35;;;;;;;4.80;3.73;;;;;;;;;;5033494;28;20460;-64
2023/02/28 00:11:03;;;;;;;8.13;4.07;;;;;;;;;;5034505;28;21113;-64
2023/02/28 00:13:32;;;;;;;5.67;4.30;;;;;;;;;;5033301;28;20457;-64
2023/02/28 00:16:01;;;;;;;4.70;4.00;;;;;;;;;;5032288;28;20541;-64
2023/02/28 00:18:29;;;;;;;4.47;4.07;;;;;;;;;;5035906;28;20970;-63
2023/02/28 00:20:58;;;;;;;4.27;3.60;;;;;;;;;;5032983;28;20980;-64
2023/02/28 00:23:26;;;;;;;5.73;4.13;;;;;;;;;;5034206;28;20480;-64
2023/02/28 00:25:55;;;;;;;4.40;4.00;;;;;;;;;;5033632;28;20465;-64
2023/02/28 00:28:23;;;;;;;4.40;4.00;;;;;;;;;;5033337;28;20533;-64
2023/02/28 00:30:52;;;;;;;6.83;4.33;;;;;;;;;;5035283;28;20580;-64
2023/02/28 00:33:20;;;;;;;3.97;3.63;;;;;;;;;;5035932;28;20968;-64
2023/02/28 00:35:48;;;;;;;6.73;5.00;;;;;;;;;;5036179;28;20540;-64
2023/02/28 00:38:17;;;;;;;5.10;4.40;;;;;;;;;;5038009;28;20465;-63
2023/02/28 00:40:45;;;;;;;5.10;4.10;;;;;;;;;;5036038;28;20480;-64
2023/02/28 00:43:14;;;;;;;4.27;3.87;;;;;;;;;;5038031;28;20463;-64
2023/02/28 00:45:42;;;;;;;4.50;4.10;;;;;;;;;;5035730;28;20529;-64
2023/02/28 00:48:10;;;;;;;5.27;3.90;;;;;;;;;;5036910;28;20449;-64
2023/02/28 00:50:38;;;;;;;4.90;4.10;;;;;;;;;;5038189;28;20489;-64
2023/02/28 00:53:06;;;;;;;5.07;4.10;;;;;;;;;;5035871;28;21995;-64
2023/02/28 00:55:34;;;;;;;5.00;4.60;;;;;;;;;;5035995;28;20461;-64
2023/02/28 00:58:02;;;;;;;4.27;3.93;;;;;;;;;;5039101;28;20465;-63
2023/02/28 01:00:31;;;;;;;3.40;3.20;;;;;;;;;;5036008;28;20476;-63
2023/02/28 01:02:59;;;;;;;4.10;3.70;;;;;;;;;;5036198;28;20488;-64
2023/02/28 01:05:27;;;;;;;4.30;3.90;;;;;;;;;;5036293;28;20446;-64
2023/02/28 01:07:55;;;;;;;4.57;3.90;;;;;;;;;;5037561;28;20461;-64
2023/02/28 01:10:23;;;;;;;6.30;4.60;;;;;;;;;;5036472;28;20934;-64
2023/02/28 01:12:51;;;;;;;4.43;4.07;;;;;;;;;;5036053;28;21857;-64
2023/02/28 01:15:19;;;;;;;4.53;3.93;;;;;;;;;;5039684;28;20545;-64
2023/02/28 01:17:48;;;;;;;4.00;3.70;;;;;;;;;;5035735;28;20457;-64
2023/02/28 01:20:16;;;;;;;3.87;3.57;;;;;;;;;;5037243;28;20469;-64
2023/02/28 01:22:45;;;;;;;4.23;3.83;;;;;;;;;;5035638;28;20536;-64
2023/02/28 01:25:13;;;;;;;5.03;3.67;;;;;;;;;;5035991;28;20461;-64
2023/02/28 01:27:41;;;;;;;4.43;4.03;;;;;;;;;;5037429;28;20552;-64
2023/02/28 01:30:10;;;;;;;4.20;3.80;;;;;;;;;;5035057;28;20481;-64
2023/02/28 01:32:38;;;;;;;4.07;3.67;;;;;;;;;;5035788;28;20462;-64
2023/02/28 01:35:07;;;;;;;5.00;4.40;;;;;;;;;;5037106;28;20524;-64
2023/02/28 01:37:35;;;;;;;4.50;3.73;;;;;;;;;;5035603;28;20812;-63
2023/02/28 01:40:04;;;;;;;5.03;4.23;;;;;;;;;;5037075;28;20480;-64
2023/02/28 01:42:32;;;;;;;5.27;3.70;;;;;;;;;;5035735;28;20457;-64
2023/02/28 01:45:02;;;;;;;7.50;3.90;;;;;;;;;;5035291;28;20476;-63
2023/02/28 01:47:32;;;;;;;5.17;4.67;;;;;;;;;;5036954;28;20488;-63
2023/02/28 01:50:01;;;;;;;4.50;4.03;;;;;;;;;;5035511;28;21090;-64
2023/02/28 01:52:31;;;;;;;4.73;3.80;;;;;;;;;;5033758;28;20609;-64
2023/02/28 01:55:00;;;;;;;3.73;3.43;;;;;;;;;;5035834;28;21000;-64
2023/02/28 01:57:31;;;;;;;4.03;3.63;;;;;;;;;;5034829;28;20466;-64
2023/02/28 02:00:00;;;;;;;3.77;3.47;;;;;;;;;;5036536;28;20481;-64
2023/02/28 02:02:29;;;;;;;4.33;4.03;;;;;;;;;;5035286;28;20464;-64
2023/02/28 02:05:01;;;;;;;4.70;3.97;;;;;;;;;;5039504;28;20970;-64
2023/02/28 02:07:33;;;;;;;4.13;3.73;;;;;;;;;;5039150;28;20459;-64
2023/02/28 02:10:02;;;;;;;4.10;3.67;;;;;;;;;;5030991;28;20473;-64
2023/02/28 02:12:35;;;;;;;4.83;3.73;;;;;;;;;;5034918;28;20481;-64
2023/02/28 02:15:06;;;;;;;4.03;3.73;;;;;;;;;;5030744;28;20457;-64
2023/02/28 02:17:37;;;;;;;4.67;3.67;;;;;;;;;;5030990;28;20485;-64
2023/02/28 02:20:17;;;;;;;4.13;3.70;;;;;;;;;;5033867;28;20577;-64
2023/02/28 02:23:01;;;;;;;3.97;3.53;;;;;;;;;;5026899;28;20481;-64
2023/02/28 02:25:30;;;;;;;3.20;2.97;;;;;;;;;;5039850;28;20453;-64
2023/02/28 02:28:12;;;;;;;4.33;3.93;;;;;;;;;;5031990;27;20553;-64
2023/02/28 02:30:56;;;;;;;3.70;3.43;;;;;;;;;;5027618;27;20483;-64
2023/02/28 02:33:54;;;;;;;6.63;3.60;;;;;;;;;;5031304;27;20468;-64
2023/02/28 02:36:26;;;;;;;4.07;3.67;;;;;;;;;;5028947;27;20508;-64
2023/02/28 02:38:55;;;;;;;3.37;3.10;;;;;;;;;;5030560;27;20533;-64
2023/02/28 02:41:26;;;;;;;4.07;3.70;;;;;;;;;;5029642;27;20445;-63
2023/02/28 02:43:58;;;;;;;3.20;2.90;;;;;;;;;;5038424;27;20947;-64
2023/02/28 02:46:30;;;;;;;4.40;3.47;;;;;;;;;;5046231;28;20442;-62
2023/02/28 02:49:00;;;;;;;5.60;3.03;;;;;;;;;;5034957;28;20933;-62
2023/02/28 02:51:31;;;;;;;3.50;3.10;;;;;;;;;;5037176;28;20539;-63
2023/02/28 02:54:01;;;;;;;6.53;3.10;;;;;;;;;;5053398;28;20454;-63
2023/02/28 02:56:30;;;;;;;4.67;3.00;;;;;;;;;;5052346;28;20867;-63
2023/02/28 02:59:01;;;;;;;2.80;2.60;;;;;;;;;;5054842;28;20449;-63
2023/02/28 03:01:30;;;;;;;3.63;3.30;;;;;;;;;;5054251;28;20463;-63
2023/02/28 03:04:00;;;;;;;3.30;3.00;;;;;;;;;;5054780;28;20445;-63
2023/02/28 03:06:29;;;;;;;3.83;2.97;;;;;;;;;;5053356;28;20461;-63
2023/02/28 03:08:57;;;;;;;4.03;3.57;;;;;;;;;;5054220;28;20458;-62
2023/02/28 03:11:25;;;;;;;3.60;3.30;;;;;;;;;;5054678;28;20513;-63
2023/02/28 03:14:09;;;;;;;4.13;3.73;;;;;;;;;;5054709;28;20521;-63
2023/02/28 03:16:44;;;;;;;3.83;3.20;;;;;;;;;;5049237;28;20492;-62
2023/02/28 03:19:27;;;;;;;4.17;3.20;;;;;;;;;;5058504;28;20479;-63
2023/02/28 03:22:02;;;;;;;4.43;3.23;;;;;;;;;;5054537;28;20465;-63
2023/02/28 03:24:33;;;;;;;3.50;3.20;;;;;;;;;;5054197;28;20788;-62
2023/02/28 03:27:06;;;;;;;3.23;3.00;;;;;;;;;;5053239;27;20465;-63
2023/02/28 03:29:35;;;;;;;3.87;2.93;;;;;;;;;;5038271;28;20489;-63
2023/02/28 03:32:05;;;;;;;3.37;3.07;;;;;;;;;;5052281;28;20568;-63
2023/02/28 03:34:34;;;;;;;4.47;3.33;;;;;;;;;;5036478;28;20973;-63
2023/02/28 03:37:07;;;;;;;3.23;2.93;;;;;;;;;;5043874;28;20533;-62
2023/02/28 03:39:38;;;;;;;3.53;2.97;;;;;;;;;;5050835;28;20530;-62
2023/02/28 03:42:08;;;;;;;3.30;2.80;;;;;;;;;;5042967;28;20453;-63
2023/02/28 03:44:39;;;;;;;3.37;3.00;;;;;;;;;;5050305;28;20472;-62
2023/02/28 03:47:09;;;;;;;3.77;3.33;;;;;;;;;;5035599;28;20443;-62
2023/02/28 03:49:43;;;;;;;3.63;3.20;;;;;;;;;;5033936;28;20513;-62
2023/02/28 03:52:12;;;;;;;3.47;2.83;;;;;;;;;;5051553;28;20553;-62
2023/02/28 03:54:43;;;;;;;3.57;3.10;;;;;;;;;;5051327;28;20562;-62
2023/02/28 03:57:15;;;;;;;2.90;2.70;;;;;;;;;;5054121;28;20646;-62
2023/02/28 03:59:44;;;;;;;4.83;3.60;;;;;;;;;;5040552;28;20473;-62
2023/02/28 04:02:12;;;;;;;8.43;3.17;;;;;;;;;;5041861;28;20474;-62
2023/02/28 04:04:48;;;;;;;3.83;3.10;;;;;;;;;;5034033;28;20961;-62
2023/02/28 04:07:18;;;;;;;3.53;2.70;;;;;;;;;;5036357;28;20456;-62
2023/02/28 04:09:46;;;;;;;4.83;3.40;;;;;;;;;;5037753;28;20474;-62
2023/02/28 04:12:14;;;;;;;5.77;3.17;;;;;;;;;;5037695;28;20518;-62
2023/02/28 04:14:42;;;;;;;3.20;2.90;;;;;;;;;;5037826;28;20442;-62
2023/02/28 04:17:10;;;;;;;3.83;3.17;;;;;;;;;;5037630;28;20450;-62
2023/02/28 04:19:38;;;;;;;4.00;3.60;;;;;;;;;;5037824;28;20466;-62
2023/02/28 04:22:06;;;;;;;3.57;2.93;;;;;;;;;;5037615;28;20530;-62
2023/02/28 04:24:35;;;;;;;3.13;2.73;;;;;;;;;;5037687;28;20453;-62
2023/02/28 04:27:03;;;;;;;4.23;3.10;;;;;;;;;;5037513;28;20481;-62
2023/02/28 04:29:32;;;;;;;3.77;3.20;;;;;;;;;;5037479;28;20553;-62
2023/02/28 04:32:01;;;;;;;4.17;3.17;;;;;;;;;;5039887;28;20503;-62
2023/02/28 04:34:30;;;;;;;3.40;3.10;;;;;;;;;;5037089;28;20478;-62
2023/02/28 04:37:00;;;;;;;3.30;3.00;;;;;;;;;;5037029;28;20472;-62
2023/02/28 04:39:45;;;;;;;3.23;2.90;;;;;;;;;;5047529;28;20469;-62
2023/02/28 04:42:13;;;;;;;3.53;2.87;;;;;;;;;;5046754;28;20533;-62
2023/02/28 04:44:41;;;;;;;6.63;3.10;;;;;;;;;;5037195;28;20937;-62
2023/02/28 04:47:09;;;;;;;3.17;2.87;;;;;;;;;;5037388;28;20457;-62
2023/02/28 04:49:37;;;;;;;3.30;2.97;;;;;;;;;;5036910;28;20469;-61
2023/02/28 04:52:07;;;;;;;3.93;2.90;;;;;;;;;;5036822;28;20447;-62
2023/02/28 04:54:35;;;;;;;5.73;2.60;;;;;;;;;;5036796;28;20511;-62
2023/02/28 04:57:04;;;;;;;3.33;3.07;;;;;;;;;;5036861;28;20893;-62
2023/02/28 04:59:32;;;;;;;6.43;2.90;;;;;;;;;;5037190;28;20473;-62
2023/02/28 05:02:03;;;;;;;2.67;2.20;;;;;;;;;;5036621;27;20534;-62
2023/02/28 05:04:33;;;;;;;2.93;2.70;;;;;;;;;;5044436;28;20453;-62
2023/02/28 05:07:02;;;;;;;3.20;2.90;;;;;;;;;;5056169;28;20442;-62
2023/02/28 05:09:32;;;;;;;2.90;2.57;;;;;;;;;;5056804;28;20501;-62
2023/02/28 05:12:00;;;;;;;3.23;2.70;;;;;;;;;;5056816;28;20448;-62
2023/02/28 05:14:29;;;;;;;3.53;2.80;;;;;;;;;;5056805;28;20507;-62
2023/02/28 05:16:57;;;;;;;4.00;3.17;;;;;;;;;;5056022;28;20449;-62
2023/02/28 05:19:25;;;;;;;4.00;3.23;;;;;;;;;;5056770;28;20500;-62
2023/02/28 05:21:55;;;;;;;2.97;2.73;;;;;;;;;;5056327;28;20469;-62
2023/02/28 05:24:23;;;;;;;3.07;2.87;;;;;;;;;;5056796;28;20466;-62
2023/02/28 05:26:52;;;;;;;2.83;2.63;;;;;;;;;;5056574;28;20442;-62
2023/02/28 05:29:20;;;;;;;4.27;3.10;;;;;;;;;;5040518;28;20562;-62
2023/02/28 05:31:50;;;;;;;4.73;3.17;;;;;;;;;;5042821;28;20481;-62
2023/02/28 05:34:18;;;;;;;3.33;3.03;;;;;;;;;;5036387;28;20505;-62
2023/02/28 05:36:46;;;;;;;3.33;3.00;;;;;;;;;;5036323;28;20443;-62
2023/02/28 05:39:14;;;;;;;4.23;3.10;;;;;;;;;;5039951;28;21034;-62
2023/02/28 05:41:42;;;;;;;4.53;2.70;;;;;;;;;;5036054;28;20450;-62
2023/02/28 05:44:10;;;;;;;3.90;2.73;;;;;;;;;;5036353;28;20779;-62
2023/02/28 05:46:39;;;;;;;2.80;2.60;;;;;;;;;;5035855;28;20759;-62
2023/02/28 05:49:08;;;;;;;3.60;3.03;;;;;;;;;;5036577;28;20486;-62
2023/02/28 05:51:39;;;;;;;4.13;2.80;;;;;;;;;;5035903;28;20445;-62
2023/02/28 05:54:08;;;;;;;4.07;3.67;;;;;;;;;;5036249;28;20486;-62
2023/02/28 05:56:38;;;;;;;2.67;2.47;;;;;;;;;;5036082;28;20470;-62
2023/02/28 05:59:06;;;;;;;6.67;3.27;;;;;;;;;;5035848;28;20537;-61
2023/02/28 06:01:35;;;;;;;4.70;3.37;;;;;;;;;;5035624;28;20879;-62
2023/02/28 06:04:05;;;;;;;3.60;3.20;;;;;;;;;;5036138;28;20474;-62
2023/02/28 06:06:35;;;;;;;2.93;2.73;;;;;;;;;;5035688;28;20984;-62
2023/02/28 06:09:04;;;;;;;2.93;2.70;;;;;;;;;;5035777;28;20478;-62
2023/02/28 06:11:32;;;;;;;5.37;2.87;;;;;;;;;;5035700;28;20813;-62
2023/02/28 06:14:01;;;;;;;4.73;3.40;;;;;;;;;;5035677;28;20832;-62
2023/02/28 06:16:29;;;;;;;4.03;2.80;;;;;;;;;;5035729;28;20448;-62
2023/02/28 06:18:58;;;;;;;3.53;2.67;;;;;;;;;;5035595;27;20887;-62
2023/02/28 06:21:27;;;;;;;3.87;3.57;;;;;;;;;;5036010;28;20452;-62
2023/02/28 06:23:58;;;;;;;3.80;3.50;;;;;;;;;;5035896;28;20474;-62
2023/02/28 06:26:26;;;;;;;4.90;3.63;;;;;;;;;;5035873;28;20438;-62
2023/02/28 06:28:55;;;;;;;3.50;3.20;;;;;;;;;;5034579;28;20447;-62
2023/02/28 06:31:24;;;;;;;4.97;3.17;;;;;;;;;;5047515;28;20537;-62
2023/02/28 06:33:52;;;;;;;3.53;2.90;;;;;;;;;;5045629;28;21045;-62
2023/02/28 06:36:20;;;;;;;3.53;3.23;;;;;;;;;;5046096;28;20438;-61
2023/02/28 06:38:51;;;;;;;4.47;3.07;;;;;;;;;;5048769;28;20457;-61
2023/02/28 06:41:20;;;;;;;3.10;2.60;;;;;;;;;;5045963;28;20525;-62
2023/02/28 06:43:48;;;;;;;4.37;2.93;;;;;;;;;;5048464;28;20454;-61
2023/02/28 06:46:16;;;;;;;7.40;3.40;;;;;;;;;;5046952;28;21000;-62
2023/02/28 06:48:45;;;;;;;3.20;2.97;;;;;;;;;;5046383;28;20470;-62
2023/02/28 06:51:14;;;;;;;2.73;2.53;;;;;;;;;;5050658;28;20545;-61
2023/02/28 06:53:42;;;;;;;7.60;4.87;;;;;;;;;;5050001;28;20477;-61
2023/02/28 06:56:11;;;;;;;7.53;3.70;;;;;;;;;;5051039;28;20430;-62
2023/02/28 06:58:41;;;;;;;5.27;4.13;;;;;;;;;;5052364;28;20765;-62
2023/02/28 07:01:09;;;;;;;3.33;3.03;;;;;;;;;;5049848;28;20462;-62
2023/02/28 07:03:37;;;;;;;4.83;3.10;;;;;;;;;;5050237;28;20473;-62
2023/02/28 07:06:06;;;;;;;2.70;2.50;;;;;;;;;;5049535;28;20552;-62
2023/02/28 07:08:34;;;;;;;5.27;3.40;;;;;;;;;;5045765;28;20451;-62
2023/02/28 07:11:02;;;;;;;4.03;2.77;;;;;;;;;;5049951;28;20818;-62
2023/02/28 07:13:30;;;;;;;10.20;3.70;;;;;;;;;;5049901;28;20533;-62
2023/02/28 07:16:00;;;;;;;6.20;3.17;;;;;;;;;;5045019;28;20446;-62
2023/02/28 07:18:28;;;;;;;3.93;2.70;;;;;;;;;;5045168;28;20442;-62
2023/02/28 07:20:57;;;;;;;3.90;3.50;;;;;;;;;;5039671;28;20503;-62
2023/02/28 07:23:25;;;;;;;3.53;2.73;;;;;;;;;;5034872;28;20446;-62
2023/02/28 07:25:53;;;;;;;7.90;2.67;;;;;;;;;;5034701;28;20446;-62
2023/02/28 07:28:21;;;;;;;3.53;2.97;;;;;;;;;;5036126;28;20829;-62
2023/02/28 07:30:52;;;;;;;4.23;2.93;;;;;;;;;;5044512;28;20469;-62
2023/02/28 07:33:21;;;;;;;4.27;3.03;;;;;;;;;;5051523;28;20772;-62
2023/02/28 07:35:50;;;;;;;7.77;3.07;;;;;;;;;;5051784;28;20434;-62
2023/02/28 07:38:19;;;;;;;4.53;2.50;;;;;;;;;;5048839;28;20442;-62
2023/02/28 07:40:47;;;;;;;3.10;2.80;;;;;;;;;;5049051;28;20453;-62
2023/02/28 07:43:18;;;;;;;6.67;3.33;;;;;;;;;;5055848;28;20962;-61
2023/02/28 07:45:46;;;;;;;4.37;3.10;;;;;;;;;;5054947;28;20430;-62
2023/02/28 07:48:14;;;;;;;4.17;2.83;;;;;;;;;;5054009;28;20453;-61
2023/02/28 07:50:43;;;;;;;4.20;3.17;;;;;;;;;;5048289;28;20991;-60
2023/02/28 07:53:11;;;;;;;7.73;3.77;;;;;;;;;;5049438;28;20433;-60
2023/02/28 07:55:39;;;;;;;5.30;3.60;;;;;;;;;;5056770;28;20485;-60
2023/02/28 07:58:07;;;;;;;5.83;3.90;;;;;;;;;;5037936;28;20450;-61
2023/02/28 08:00:35;;;;;;;6.63;3.90;;;;;;;;;;5037661;28;20497;-61
2023/02/28 08:03:03;;;;;;;5.33;2.97;;;;;;;;;;5037644;28;20453;-61
2023/02/28 08:05:31;;;;;;;5.00;4.10;;;;;;;;;;5037851;28;20508;-59
2023/02/28 08:08:01;;;;;;;5.90;3.33;;;;;;;;;;5037848;28;20442;-61
2023/02/28 08:10:29;;;;;;;4.50;3.90;;;;;;;;;;5037661;28;20504;-60
2023/02/28 08:12:57;;;;;;;4.90;4.40;;;;;;;;;;5037640;28;20449;-60
2023/02/28 08:15:25;;;;;;;4.33;3.87;;;;;;;;;;5037473;28;20485;-60
2023/02/28 08:17:52;;;;;;;9.73;5.43;;;;;;;;;;5037307;28;20477;-60
2023/02/28 08:20:21;;;;;;;5.10;3.87;;;;;;;;;;5037721;28;20470;-60
2023/02/28 08:22:48;;;;;;;4.87;3.23;;;;;;;;;;5037875;28;20442;-61
2023/02/28 08:25:18;;;;;;;5.17;3.50;;;;;;;;;;5037422;28;20783;-60
2023/02/28 08:27:46;;;;;;;5.10;3.67;;;;;;;;;;5037560;28;20449;-61
2023/02/28 08:30:15;;;;;;;3.67;3.07;;;;;;;;;;5040383;28;20464;-62
2023/02/28 08:32:43;;;;;;;3.43;2.57;;;;;;;;;;5055569;28;20479;-62
2023/02/28 08:35:11;;;;;;;2.63;2.43;;;;;;;;;;5037342;28;20486;-62
2023/02/28 08:37:39;;;;;;;5.00;2.87;;;;;;;;;;5043172;28;20532;-62
2023/02/28 08:40:08;;;;;;;4.70;3.17;;;;;;;;;;5052682;28;21027;-62
2023/02/28 08:42:38;;;;;;;5.30;3.47;;;;;;;;;;5042886;28;20482;-62
2023/02/28 08:45:06;;;;;;;3.80;2.90;;;;;;;;;;5036714;28;20438;-62
2023/02/28 08:47:34;;;;;;;5.20;2.80;;;;;;;;;;5036861;28;20783;-62
2023/02/28 08:50:02;;;;;;;3.87;2.73;;;;;;;;;;5044935;28;20471;-62
2023/02/28 08:52:30;;;;;;;3.70;3.03;;;;;;;;;;5048564;28;20479;-62
2023/02/28 08:54:58;;;;;;;3.43;3.13;;;;;;;;;;5041645;28;20492;-62
2023/02/28 08:57:27;;;;;;;2.77;2.50;;;;;;;;;;5048399;28;20819;-62
2023/02/28 08:59:57;;;;;;;3.07;2.83;;;;;;;;;;5036712;28;20470;-62
2023/02/28 09:02:25;;;;;;;3.40;2.70;;;;;;;;;;5036872;28;20453;-62
2023/02/28 09:04:52;;;;;;;7.07;3.40;;;;;;;;;;5036599;28;20785;-62
2023/02/28 09:07:20;;;;;;;3.50;2.77;;;;;;;;;;5035673;28;20442;-62
2023/02/28 09:09:54;;;;;;;4.30;2.83;;;;;;;;;;5052792;28;20468;-62
2023/02/28 09:12:23;;;;;;;3.97;2.77;;;;;;;;;;5054942;28;20446;-62
2023/02/28 09:14:51;;;;;;;2.70;2.50;;;;;;;;;;5053666;28;20564;-62
2023/02/28 09:17:20;;;;;;;2.90;2.60;;;;;;;;;;5039828;28;20458;-62
2023/02/28 09:19:48;;;;;;;3.63;3.10;;;;;;;;;;5035985;28;20965;-62
2023/02/28 09:22:17;;;;;;;10.53;3.20;;;;;;;;;;5039494;28;20518;-62
2023/02/28 09:24:45;;;;;;;2.97;2.57;;;;;;;;;;5036140;28;20466;-61
2023/02/28 09:27:13;;;;;;;2.93;2.73;;;;;;;;;;5043932;27;20456;-62
2023/02/28 09:29:41;;;;;;;5.03;2.60;;;;;;;;;;5040181;28;20523;-61
2023/02/28 09:32:09;;;;;;;3.43;3.13;;;;;;;;;;5045796;28;20446;-61
2023/02/28 09:34:39;;;;;;;4.93;3.53;;;;;;;;;;5041091;28;20526;-61
2023/02/28 09:37:07;;;;;;;4.33;3.40;;;;;;;;;;5040133;28;20453;-61
2023/02/28 09:39:35;;;;;;;3.20;2.90;;;;;;;;;;5042824;28;20513;-61
2023/02/28 09:42:03;;;;;;;3.70;2.80;;;;;;;;;;5049402;28;20794;-61
2023/02/28 09:44:33;;;;;;;3.00;2.80;;;;;;;;;;5036012;28;20453;-61
2023/02/28 09:47:04;;;;;;;3.20;3.00;;;;;;;;;;5050104;28;20963;-61
2023/02/28 09:49:35;;;;;;;3.43;3.20;;;;;;;;;;5036094;28;20549;-60
2023/02/28 09:52:08;;;;;;;3.10;2.80;;;;;;;;;;5035946;28;20449;-60
2023/02/28 09:54:37;;;;;;;4.47;3.37;;;;;;;;;;5046078;28;20446;-61
2023/02/28 09:57:07;;;;;;;4.07;3.00;;;;;;;;;;5048983;28;20622;-61
2023/02/28 09:59:43;;;;;;;5.37;3.53;;;;;;;;;;5046430;28;20457;-61
2023/02/28 10:02:18;;;;;;;5.43;3.13;;;;;;;;;;5046601;28;20502;-60
2023/02/28 10:04:51;;;;;;;3.93;3.37;;;;;;;;;;5048106;28;20436;-61
2023/02/28 10:07:25;;;;;;;3.60;3.30;;;;;;;;;;5047157;28;20443;-61
2023/02/28 10:09:54;;;;;;;4.00;3.30;;;;;;;;;;5046466;28;20469;-61
2023/02/28 10:12:23;;;;;;;3.47;3.20;;;;;;;;;;5046067;28;21865;-61
2023/02/28 10:14:52;;;;;;;4.70;3.60;;;;;;;;;;5046819;28;20446;-61
2023/02/28 10:17:22;;;;;;;11.30;4.13;;;;;;;;;;5047406;28;20446;-61
2023/02/28 10:19:55;;;;;;;6.00;3.47;;;;;;;;;;5046492;28;20461;-60
2023/02/28 10:22:26;;;;;;;3.70;3.37;;;;;;;;;;5052744;27;20448;-61
2023/02/28 10:24:56;;;;;;;4.53;3.40;;;;;;;;;;5047696;28;20533;-61
2023/02/28 10:27:25;;;;;;;4.03;3.50;;;;;;;;;;5046603;28;20520;-61
2023/02/28 10:29:54;;;;;;;3.93;3.60;;;;;;;;;;5052840;28;20462;-61
2023/02/28 10:32:24;;;;;;;4.33;3.93;;;;;;;;;;5043719;28;20455;-60
2023/02/28 10:34:54;;;;;;;5.87;3.70;;;;;;;;;;5035196;28;20470;-61
2023/02/28 10:37:24;;;;;;;4.50;3.37;;;;;;;;;;5035694;28;20524;-61
2023/02/28 10:39:52;;;;;;;9.00;4.37;;;;;;;;;;5042149;27;20505;-61
2023/02/28 10:42:21;;;;;;;3.90;3.30;;;;;;;;;;5036265;28;20454;-61
2023/02/28 10:44:49;;;;;;;4.80;4.03;;;;;;;;;;5035377;28;20506;-61
2023/02/28 10:47:18;;;;;;;5.10;3.80;;;;;;;;;;5035017;28;20467;-61
2023/02/28 10:49:52;;;;;;;7.73;3.87;;;;;;;;;;5035038;28;20474;-61
2023/02/28 10:52:35;;;;;;;4.80;3.67;;;;;;;;;;5035453;28;20450;-61
2023/02/28 10:55:17;;;;;;;3.93;3.37;;;;;;;;;;5035114;28;20916;-61
2023/02/28 10:57:45;;;;;;;5.03;4.10;;;;;;;;;;5036903;28;20781;-60
2023/02/28 11:00:15;;;;;;;4.03;3.63;;;;;;;;;;5040936;28;20539;-60
2023/02/28 11:02:44;;;;;;;6.33;4.30;;;;;;;;;;5034873;28;20499;-61
2023/02/28 11:05:27;;;;;;;3.63;3.23;;;;;;;;;;5034873;28;20454;-61
2023/02/28 11:07:56;;;;;;;5.90;4.30;;;;;;;;;;5036058;28;20450;-61
2023/02/28 11:10:27;;;;;;;6.03;4.33;;;;;;;;;;5034937;28;20481;-61
2023/02/28 11:12:56;;;;;;;4.50;4.10;;;;;;;;;;5035142;28;20481;-62
2023/02/28 11:15:28;;;;;;;3.83;3.43;;;;;;;;;;5033970;28;20475;-61
2023/02/28 11:17:57;;;;;;;4.90;4.27;;;;;;;;;;5034990;28;20469;-61
2023/02/28 11:20:27;;;;;;;4.50;3.67;;;;;;;;;;5052365;28;20536;-61
2023/02/28 11:22:56;;;;;;;4.17;3.77;;;;;;;;;;5054838;28;20445;-61
2023/02/28 11:25:26;;;;;;;4.10;3.70;;;;;;;;;;5054730;28;20473;-61
2023/02/28 11:27:57;;;;;;;7.00;4.17;;;;;;;;;;5054706;28;20453;-61
2023/02/28 11:30:33;;;;;;;6.90;4.33;;;;;;;;;;5041958;28;20473;-61
2023/02/28 11:33:02;;;;;;;6.07;3.90;;;;;;;;;;5044024;28;20503;-62
2023/02/28 11:35:31;;;;;;;4.10;3.70;;;;;;;;;;5037427;28;20531;-62
2023/02/28 11:38:01;;;;;;;4.97;4.53;;;;;;;;;;5034281;28;20477;-62
2023/02/28 11:40:32;;;;;;;5.53;4.10;;;;;;;;;;5046724;28;20466;-62
2023/02/28 11:43:10;;;;;;;9.40;4.43;;;;;;;;;;5051683;28;20529;-62
2023/02/28 11:45:46;;;;;;;5.60;4.77;;;;;;;;;;5050375;28;20521;-61
2023/02/28 11:48:18;;;;;;;4.77;4.37;;;;;;;;;;5047316;28;20945;-62
2023/02/28 11:50:50;;;;;;;4.27;3.70;;;;;;;;;;5052382;28;21023;-62
2023/02/28 11:53:22;;;;;;;5.57;4.20;;;;;;;;;;5049806;28;20491;-61
2023/02/28 11:55:55;;;;;;;6.10;4.37;;;;;;;;;;5051458;28;20494;-62
2023/02/28 11:58:32;;;;;;;4.90;4.40;;;;;;;;;;5048274;28;20462;-62
2023/02/28 12:01:09;;;;;;;5.57;4.17;;;;;;;;;;5044301;28;20544;-63
2023/02/28 12:03:44;;;;;;;4.67;3.80;;;;;;;;;;5045094;28;20478;-62
2023/02/28 12:06:19;;;;;;;4.50;4.10;;;;;;;;;;5044913;28;20459;-62
2023/02/28 12:08:59;;;;;;;7.27;4.57;;;;;;;;;;5033933;28;20457;-62
2023/02/28 12:11:32;;;;;;;4.67;4.27;;;;;;;;;;5032844;28;20442;-62
2023/02/28 12:14:07;;;;;;;7.33;4.73;;;;;;;;;;5031887;28;20441;-62
2023/02/28 12:16:44;;;;;;;7.20;4.57;;;;;;;;;;5033231;28;21063;-61
2023/02/28 12:19:19;;;;;;;5.43;4.40;;;;;;;;;;5039465;28;20563;-61
2023/02/28 12:22:02;;;;;;;4.67;3.80;;;;;;;;;;5047550;28;20959;-62
2023/02/28 12:24:38;;;;;;;4.13;3.73;;;;;;;;;;5039658;28;20434;-62
2023/02/28 12:27:08;;;;;;;7.33;4.23;;;;;;;;;;5046225;28;20497;-62
2023/02/28 12:29:42;;;;;;;6.00;4.00;;;;;;;;;;5042669;28;20493;-62
2023/02/28 12:32:12;;;;;;;7.20;4.63;;;;;;;;;;5051587;28;20521;-62
2023/02/28 12:34:42;;;;;;;4.70;4.30;;;;;;;;;;5051820;28;20288;-61
2023/02/28 12:37:14;;;;;;;5.87;4.70;;;;;;;;;;5051766;28;20899;-61
2023/02/28 12:39:45;;;;;;;6.53;4.70;;;;;;;;;;5050409;28;20458;-62
2023/02/28 12:42:20;;;;;;;7.40;4.40;;;;;;;;;;5037079;28;21012;-62
2023/02/28 12:44:52;;;;;;;6.50;4.50;;;;;;;;;;5037301;28;20212;-62
2023/02/28 12:47:20;;;;;;;5.10;4.53;;;;;;;;;;5037176;28;20218;-62
2023/02/28 12:49:50;;;;;;;4.77;4.37;;;;;;;;;;5037176;28;20234;-62
2023/02/28 12:52:23;;;;;;;6.73;5.00;;;;;;;;;;5037139;28;20223;-61
2023/02/28 12:54:57;;;;;;;5.07;4.40;;;;;;;;;;5056642;28;20230;-61
2023/02/28 12:57:28;;;;;;;7.50;4.80;;;;;;;;;;5046115;28;20482;-62
2023/02/28 13:00:00;;;;;;;5.23;4.67;;;;;;;;;;5046769;28;20266;-62
2023/02/28 13:02:46;;;;;;;5.10;4.57;;;;;;;;;;5046981;28;20207;-61
2023/02/28 13:05:33;;;;;;;5.03;4.53;;;;;;;;;;5046505;28;20207;-62
2023/02/28 13:08:31;;;;;;;7.00;4.73;;;;;;;;;;5035363;28;20445;-62
2023/02/28 13:10:59;;;;;;;6.53;4.70;;;;;;;;;;5075733;28;20489;-62
2023/02/28 13:13:31;;;;;;;7.00;5.53;;;;;;;;;;5043742;28;20551;-62
2023/02/28 13:16:06;;;;;;;5.57;4.90;;;;;;;;;;5035126;28;20450;-62
2023/02/28 13:18:37;;;;;;;5.77;4.80;;;;;;;;;;5040763;28;20488;-60
2023/02/28 13:21:06;;;;;;;6.00;4.67;;;;;;;;;;5040427;28;20492;-61
2023/02/28 13:23:39;;;;;;;4.37;3.97;;;;;;;;;;5052121;28;20199;-61
2023/02/28 13:26:07;;;;;;;7.10;4.63;;;;;;;;;;5055357;28;20453;-61
2023/02/28 13:29:08;;;;;;;7.63;5.40;;;;;;;;;;5049935;28;20863;-61
2023/02/28 13:32:07;;;;;;;5.10;4.30;;;;;;;;;;5052325;28;20739;-62
2023/02/28 13:34:37;;;;;;;6.03;4.80;;;;;;;;;;4995849;28;20233;-61
2023/02/28 13:37:20;;;;;;;5.63;5.03;;;;;;;;;;5035040;28;20225;-62
2023/02/28 13:39:49;;;;;;;5.20;4.70;;;;;;;;;;5041808;28;20293;-62
2023/02/28 13:42:25;;;;;;;6.87;5.20;;;;;;;;;;5048583;28;20209;-61
2023/02/28 13:45:10;;;;;;;6.20;5.10;;;;;;;;;;5039092;28;20278;-61
2023/02/28 13:47:40;;;;;;;8.53;5.13;;;;;;;;;;5034862;28;20214;-62
2023/02/28 13:50:24;;;;;;;5.47;4.97;;;;;;;;;;5035960;28;20232;-61
2023/02/28 13:52:59;;;;;;;5.67;4.73;;;;;;;;;;5036535;27;20243;-62
2023/02/28 13:55:30;;;;;;;6.50;4.83;;;;;;;;;;5036207;28;20210;-62
2023/02/28 13:58:12;;;;;;;6.73;4.90;;;;;;;;;;5036247;28;20223;-61
2023/02/28 14:00:51;;;;;;;6.27;5.10;;;;;;;;;;5043434;28;20234;-61
2023/02/28 14:03:26;;;;;;;6.60;4.93;;;;;;;;;;5040224;28;20210;-61
2023/02/28 14:08:53;;;;;;;7.17;5.17;;;;;;;;;;5136128;27;20580;-60
2023/02/28 14:11:26;;;;;;;7.10;5.13;;;;;;;;;;5115428;28;20209;-62
2023/02/28 14:13:54;;;;;;;6.90;5.50;;;;;;;;;;5115776;28;20287;-62
2023/02/28 14:16:24;;;;;;;7.13;5.17;;;;;;;;;;5115188;28;20201;-62
2023/02/28 14:18:56;;;;;;;6.60;5.20;;;;;;;;;;5115592;28;20204;-61
2023/02/28 14:21:26;;;;;;;6.10;5.53;;;;;;;;;;5115572;28;20500;-61
2023/02/28 14:24:12;;;;;;;7.27;5.30;;;;;;;;;;5115218;28;20659;-62
2023/02/28 14:26:57;;;;;;;7.80;5.90;;;;;;;;;;5115170;28;20231;-62
2023/02/28 14:29:36;;;;;;;7.50;5.40;;;;;;;;;;5115156;28;20254;-61
2023/02/28 14:32:07;;;;;;;7.73;5.60;;;;;;;;;;5114971;28;20262;-61
2023/02/28 14:34:42;;;;;;;8.97;5.57;;;;;;;;;;5100138;28;20247;-61
2023/02/28 14:37:14;;;;;;;8.37;6.03;;;;;;;;;;5094719;28;20213;-62
2023/02/28 14:39:43;;;;;;;7.37;5.80;;;;;;;;;;5094348;28;20222;-61
2023/02/28 14:42:29;;;;;;;5.30;4.90;;;;;;;;;;5094519;28;20231;-62
2023/02/28 14:44:58;;;;;;;6.80;5.67;;;;;;;;;;5094242;28;20201;-62
2023/02/28 14:47:28;;;;;;;6.10;5.50;;;;;;;;;;5095581;28;20218;-62
2023/02/28 14:49:56;;;;;;;7.13;5.70;;;;;;;;;;5095298;28;20629;-62
2023/02/28 14:52:27;;;;;;;7.67;5.27;;;;;;;;;;5094648;28;20220;-61
2023/02/28 14:54:55;;;;;;;6.63;5.20;;;;;;;;;;5094783;28;20201;-61
2023/02/28 14:57:25;;;;;;;6.47;5.20;;;;;;;;;;5090340;28;20277;-61
2023/02/28 15:00:06;;;;;;;6.83;5.57;;;;;;;;;;5090967;28;20246;-61
2023/02/28 15:02:35;;;;;;;5.60;5.10;;;;;;;;;;5093630;28;20237;-61
2023/02/28 15:05:17;;;;;;;6.10;5.43;;;;;;;;;;5095746;28;20201;-60
2023/02/28 15:07:45;;;;;;;6.80;5.17;;;;;;;;;;5091502;28;20233;-60